createdAt,value
2022-08-26T00:01:16.517Z,46.97
2022-08-26T00:03:22.223Z,47.18
2022-08-26T00:05:26.894Z,47.14
2022-08-26T00:07:28.654Z,47.37
2022-08-26T00:09:30.839Z,47.35
2022-08-26T00:11:32.837Z,47.30
2022-08-26T00:13:35.319Z,47.21
2022-08-26T00:15:38.824Z,47.22
2022-08-26T00:17:40.904Z,47.10
2022-08-26T00:19:42.688Z,47.24
2022-08-26T00:21:45.643Z,47.20
2022-08-26T00:23:47.855Z,47.53
2022-08-26T00:25:49.535Z,47.10
2022-08-26T00:27:51.375Z,47.40
2022-08-26T00:29:54.689Z,47.49
2022-08-26T00:31:58.427Z,47.68
2022-08-26T00:34:02.665Z,47.78
2022-08-26T00:36:05.568Z,47.83
2022-08-26T00:38:07.491Z,47.66
2022-08-26T00:40:13.440Z,47.36
2022-08-26T00:42:15.128Z,47.52
2022-08-26T00:44:20.758Z,47.59
2022-08-26T00:46:29.304Z,47.63
2022-08-26T00:48:34.137Z,47.69
2022-08-26T00:50:41.608Z,47.82
2022-08-26T00:52:45.090Z,47.63
2022-08-26T00:55:00.010Z,47.92
2022-08-26T00:57:15.816Z,48.07
2022-08-26T00:59:20.548Z,48.30
2022-08-26T01:01:22.877Z,47.98
2022-08-26T01:03:26.670Z,47.71
2022-08-26T01:05:29.527Z,48.10
2022-08-26T01:07:34.728Z,47.90
2022-08-26T01:09:36.712Z,48.16
2022-08-26T01:11:39.216Z,47.94
2022-08-26T01:13:41.537Z,47.99
2022-08-26T01:15:47.801Z,48.15
2022-08-26T01:17:54.662Z,48.11
2022-08-26T01:20:03.849Z,48.62
2022-08-26T01:22:10.763Z,48.54
2022-08-26T01:24:14.341Z,48.68
2022-08-26T01:26:24.378Z,48.65
2022-08-26T01:28:31.608Z,48.75
2022-08-26T01:30:37.418Z,48.58
2022-08-26T01:32:40.337Z,48.46
2022-08-26T01:34:43.952Z,48.65
2022-08-26T01:36:51.394Z,48.88
2022-08-26T01:38:56.576Z,48.91
2022-08-26T01:40:58.531Z,49.10
2022-08-26T01:43:02.296Z,48.98
2022-08-26T01:45:17.292Z,49.09
2022-08-26T01:47:21.405Z,48.92
2022-08-26T01:49:24.876Z,48.74
2022-08-26T01:51:29.831Z,48.86
2022-08-26T01:53:34.562Z,48.95
2022-08-26T01:55:39.247Z,49.19
2022-08-26T01:57:48.531Z,49.26
2022-08-26T01:59:51.993Z,48.94
2022-08-26T02:01:57.026Z,49.16
2022-08-26T02:04:02.947Z,49.29
2022-08-26T02:06:09.231Z,49.40
2022-08-26T02:08:13.164Z,49.30
2022-08-26T02:10:18.355Z,49.26
2022-08-26T02:12:23.173Z,49.20
2022-08-26T02:14:29.330Z,49.16
2022-08-26T02:16:38.413Z,49.14
2022-08-26T02:18:46.836Z,49.14
2022-08-26T02:20:51.666Z,48.99
2022-08-26T02:22:53.651Z,48.98
2022-08-26T02:25:10.591Z,49.31
2022-08-26T02:27:12.265Z,49.28
2022-08-26T02:29:26.454Z,49.14
2022-08-26T02:31:29.059Z,49.01
2022-08-26T02:33:30.923Z,49.08
2022-08-26T02:35:35.611Z,49.20
2022-08-26T02:37:37.677Z,49.09
2022-08-26T02:39:44.098Z,49.04
2022-08-26T02:41:47.024Z,48.99
2022-08-26T02:43:49.829Z,48.87
2022-08-26T02:45:51.751Z,49.02
2022-08-26T02:47:54.430Z,49.21
2022-08-26T02:49:58.351Z,49.30
2022-08-26T02:52:01.919Z,49.47
2022-08-26T02:54:04.099Z,49.53
2022-08-26T02:56:08.525Z,49.46
2022-08-26T02:58:11.263Z,49.50
2022-08-26T03:00:15.435Z,49.45
2022-08-26T03:02:17.356Z,49.50
2022-08-26T03:04:19.289Z,49.65
2022-08-26T03:06:22.481Z,49.99
2022-08-26T03:08:24.263Z,49.96
2022-08-26T03:10:27.221Z,49.84
2022-08-26T03:12:29.096Z,49.57
2022-08-26T03:14:31.552Z,49.67
2022-08-26T03:16:35.595Z,49.70
2022-08-26T03:18:37.359Z,49.82
2022-08-26T03:20:40.082Z,50.02
2022-08-26T03:22:43.212Z,49.82
2022-08-26T03:24:50.513Z,50.16
2022-08-26T03:26:53.191Z,50.17
2022-08-26T03:29:13.969Z,50.20
2022-08-26T03:31:16.940Z,50.23
2022-08-26T03:33:19.100Z,50.14
2022-08-26T03:35:22.467Z,50.19
2022-08-26T03:37:24.054Z,50.31
2022-08-26T03:39:25.629Z,50.09
2022-08-26T03:41:27.281Z,50.15
2022-08-26T03:43:28.937Z,50.28
2022-08-26T03:45:30.644Z,50.26
2022-08-26T03:47:33.686Z,50.33
2022-08-26T03:49:37.646Z,50.43
2022-08-26T03:51:40.528Z,50.57
2022-08-26T03:53:44.567Z,50.43
2022-08-26T03:55:47.368Z,50.68
2022-08-26T03:57:56.461Z,50.62
2022-08-26T03:59:59.353Z,50.58
2022-08-26T04:02:00.967Z,50.42
2022-08-26T04:04:05.023Z,50.42
2022-08-26T04:06:08.332Z,50.37
2022-08-26T04:08:11.063Z,50.34
2022-08-26T04:10:15.581Z,50.53
2022-08-26T04:12:21.883Z,50.48
2022-08-26T04:14:25.951Z,50.58
2022-08-26T04:16:29.477Z,50.46
2022-08-26T04:18:37.203Z,50.51
2022-08-26T04:20:39.248Z,50.38
2022-08-26T04:22:43.858Z,50.50
2022-08-26T04:24:46.347Z,50.67
2022-08-26T04:26:50.516Z,51.11
2022-08-26T04:28:53.996Z,50.84
2022-08-26T04:30:56.037Z,51.02
2022-08-26T04:32:58.127Z,50.81
2022-08-26T04:35:00.022Z,50.88
2022-08-26T04:37:05.218Z,51.08
2022-08-26T04:39:18.811Z,50.97
2022-08-26T04:41:22.690Z,50.86
2022-08-26T04:43:28.409Z,51.27
2022-08-26T04:45:30.036Z,51.17
2022-08-26T04:47:37.781Z,51.30
2022-08-26T04:49:39.698Z,51.07
2022-08-26T04:51:43.967Z,51.15
2022-08-26T04:53:45.957Z,51.24
2022-08-26T04:55:48.527Z,51.38
2022-08-26T04:57:50.282Z,51.48
2022-08-26T04:59:52.144Z,51.35
2022-08-26T05:01:57.296Z,51.25
2022-08-26T05:03:59.236Z,51.55
2022-08-26T05:06:05.070Z,51.24
2022-08-26T05:08:07.261Z,51.39
2022-08-26T05:10:11.366Z,50.97
2022-08-26T05:12:13.164Z,51.12
2022-08-26T05:14:18.735Z,50.89
2022-08-26T05:16:20.735Z,51.12
2022-08-26T05:18:25.807Z,51.21
2022-08-26T05:20:27.786Z,51.03
2022-08-26T05:22:29.309Z,51.13
2022-08-26T05:24:31.364Z,51.05
2022-08-26T05:26:33.598Z,51.31
2022-08-26T05:28:45.514Z,51.39
2022-08-26T05:30:52.417Z,51.37
2022-08-26T05:32:55.401Z,51.29
2022-08-26T05:34:57.061Z,51.57
2022-08-26T05:37:02.447Z,51.39
2022-08-26T05:39:06.234Z,51.30
2022-08-26T05:41:21.651Z,51.81
2022-08-26T05:43:23.266Z,51.59
2022-08-26T05:45:25.393Z,51.65
2022-08-26T05:47:26.953Z,51.53
2022-08-26T05:49:28.749Z,51.50
2022-08-26T05:51:31.021Z,51.43
2022-08-26T05:53:32.960Z,51.44
2022-08-26T05:55:35.539Z,51.38
2022-08-26T05:57:42.205Z,51.60
2022-08-26T05:59:44.629Z,51.57
2022-08-26T06:01:55.438Z,51.62
2022-08-26T06:04:01.492Z,51.68
2022-08-26T06:06:09.737Z,51.55
2022-08-26T06:08:14.002Z,51.68
2022-08-26T06:10:31.470Z,51.86
2022-08-26T06:12:34.269Z,51.87
2022-08-26T06:14:36.072Z,52.00
2022-08-26T06:16:41.365Z,52.00
2022-08-26T06:18:47.832Z,51.99
2022-08-26T06:20:57.921Z,52.12
2022-08-26T06:23:18.348Z,52.31
2022-08-26T06:25:38.247Z,52.30
2022-08-26T06:27:42.430Z,52.50
2022-08-26T06:29:43.909Z,52.59
2022-08-26T06:31:46.338Z,52.28
2022-08-26T06:33:48.046Z,52.21
2022-08-26T06:35:50.876Z,52.28
2022-08-26T06:37:52.735Z,51.95
2022-08-26T06:39:54.367Z,52.07
2022-08-26T06:41:56.950Z,52.19
2022-08-26T06:44:00.498Z,51.80
2022-08-26T06:46:06.288Z,51.61
2022-08-26T06:48:10.364Z,51.55
2022-08-26T06:50:11.835Z,51.95
2022-08-26T06:52:13.564Z,51.70
2022-08-26T06:54:15.238Z,51.89
2022-08-26T06:56:25.764Z,51.38
2022-08-26T06:58:33.785Z,51.43
2022-08-26T07:00:39.148Z,51.71
2022-08-26T07:02:46.192Z,51.30
2022-08-26T07:04:48.769Z,51.50
2022-08-26T07:06:53.921Z,51.73
2022-08-26T07:09:03.302Z,51.76
2022-08-26T07:11:07.273Z,51.61
2022-08-26T07:13:11.087Z,51.67
2022-08-26T07:15:13.388Z,51.49
2022-08-26T07:17:18.288Z,51.17
2022-08-26T07:19:29.966Z,50.95
2022-08-26T07:21:34.154Z,51.04
2022-08-26T07:23:39.360Z,50.92
2022-08-26T07:25:42.656Z,50.70
2022-08-26T07:27:54.327Z,51.04
2022-08-26T07:29:57.215Z,50.87
2022-08-26T07:32:02.592Z,50.47
2022-08-26T07:34:04.531Z,50.49
2022-08-26T07:36:08.634Z,50.57
2022-08-26T07:38:11.156Z,50.72
2022-08-26T07:40:14.033Z,50.30
2022-08-26T07:42:19.862Z,50.50
2022-08-26T07:44:21.574Z,50.60
2022-08-26T07:46:27.134Z,50.24
2022-08-26T07:48:32.012Z,50.57
2022-08-26T07:50:50.128Z,50.60
2022-08-26T07:52:52.622Z,50.51
2022-08-26T07:54:58.053Z,50.48
2022-08-26T07:56:59.851Z,50.18
2022-08-26T07:59:01.762Z,50.32
2022-08-26T08:01:05.079Z,50.26
2022-08-26T08:03:09.617Z,50.29
2022-08-26T08:05:19.832Z,50.15
2022-08-26T08:07:44.207Z,50.46
2022-08-26T08:09:53.268Z,50.00
2022-08-26T08:11:57.406Z,49.95
2022-08-26T08:14:00.786Z,49.91
2022-08-26T08:16:05.340Z,49.95
2022-08-26T08:18:07.451Z,49.54
2022-08-26T08:20:22.151Z,49.46
2022-08-26T08:22:31.227Z,49.37
2022-08-26T08:24:34.341Z,49.37
2022-08-26T08:26:47.949Z,49.46
2022-08-26T08:29:00.841Z,49.12
2022-08-26T08:31:03.509Z,49.38
2022-08-26T08:33:16.098Z,49.38
2022-08-26T08:35:29.503Z,49.13
2022-08-26T08:37:32.583Z,48.55
2022-08-26T08:39:47.372Z,49.03
2022-08-26T08:42:06.789Z,48.74
2022-08-26T08:44:18.469Z,49.08
2022-08-26T08:46:20.526Z,48.42
2022-08-26T08:48:27.925Z,48.71
2022-08-26T08:50:35.040Z,48.43
2022-08-26T08:52:39.169Z,47.83
2022-08-26T08:54:40.715Z,47.35
2022-08-26T08:57:01.698Z,47.50
2022-08-26T08:59:24.619Z,47.49
2022-08-26T09:01:26.441Z,47.25
2022-08-26T09:03:46.590Z,47.02
2022-08-26T09:05:51.483Z,47.12
2022-08-26T09:08:03.142Z,47.27
2022-08-26T09:10:37.050Z,46.89
2022-08-26T09:12:38.812Z,46.56
2022-08-26T09:14:41.201Z,46.74
2022-08-26T09:16:54.901Z,46.67
2022-08-26T09:19:04.984Z,46.56
2022-08-26T09:21:09.659Z,46.37
2022-08-26T09:23:11.606Z,46.38
2022-08-26T09:25:14.981Z,46.33
2022-08-26T09:27:40.206Z,46.24
2022-08-26T09:29:46.354Z,45.80
2022-08-26T09:32:13.265Z,45.96
2022-08-26T09:34:19.471Z,45.87
2022-08-26T09:36:39.522Z,45.51
2022-08-26T09:38:43.855Z,45.41
2022-08-26T09:40:59.312Z,44.90
2022-08-26T09:43:16.001Z,44.45
2022-08-26T09:45:30.020Z,44.08
2022-08-26T09:47:40.553Z,43.47
2022-08-26T09:49:42.288Z,43.57
2022-08-26T09:51:50.065Z,43.32
2022-08-26T09:53:58.091Z,42.88
2022-08-26T09:56:23.777Z,42.47
2022-08-26T09:58:37.957Z,42.20
2022-08-26T10:00:55.892Z,42.14
2022-08-26T10:03:03.965Z,42.34
2022-08-26T10:05:09.900Z,42.10
2022-08-26T10:07:14.666Z,41.61
2022-08-26T10:09:18.744Z,41.74
2022-08-26T10:11:56.601Z,41.17
2022-08-26T10:14:04.710Z,41.33
2022-08-26T10:16:17.883Z,40.92
2022-08-26T10:18:34.969Z,40.73
2022-08-26T10:20:41.801Z,40.35
2022-08-26T10:23:07.821Z,40.03
2022-08-26T10:25:16.520Z,39.80
2022-08-26T10:27:32.309Z,39.20
2022-08-26T10:29:48.823Z,39.42
2022-08-26T10:31:58.791Z,38.65
2022-08-26T10:34:05.373Z,38.28
2022-08-26T10:36:39.465Z,38.40
2022-08-26T10:38:57.130Z,37.97
2022-08-26T10:41:16.950Z,37.23
2022-08-26T10:43:25.578Z,37.54
2022-08-26T10:45:33.346Z,37.99
2022-08-26T10:47:42.938Z,37.28
2022-08-26T10:49:47.177Z,37.32
2022-08-26T10:52:22.465Z,36.87
2022-08-26T10:54:42.138Z,36.85
2022-08-26T10:56:53.264Z,37.01
2022-08-26T10:59:12.406Z,36.79
2022-08-26T11:01:41.259Z,36.29
2022-08-26T11:04:06.141Z,35.91
2022-08-26T11:06:27.960Z,36.13
2022-08-26T11:08:30.330Z,36.20
2022-08-26T11:10:38.046Z,35.71
2022-08-26T11:12:39.875Z,35.47
2022-08-26T11:14:53.535Z,35.50
2022-08-26T11:17:01.378Z,35.70
2022-08-26T11:19:09.485Z,34.82
2022-08-26T11:21:49.516Z,35.34
2022-08-26T11:23:53.032Z,35.48
2022-08-26T11:26:10.937Z,34.78
2022-08-26T11:28:44.141Z,35.03
2022-08-26T11:30:48.356Z,35.40
2022-08-26T11:32:59.360Z,35.08
2022-08-26T11:35:22.116Z,34.09
2022-08-26T11:37:35.149Z,34.20
2022-08-26T11:39:57.155Z,33.47
2022-08-26T11:42:25.188Z,32.82
2022-08-26T11:44:38.928Z,32.84
2022-08-26T11:46:56.280Z,32.77
2022-08-26T11:49:03.538Z,32.49
2022-08-26T11:51:11.498Z,32.93
2022-08-26T11:53:19.221Z,32.97
2022-08-26T11:55:24.275Z,32.67
2022-08-26T11:57:47.663Z,32.01
2022-08-26T11:59:49.625Z,32.11
2022-08-26T12:01:54.593Z,32.02
2022-08-26T12:03:58.393Z,32.44
2022-08-26T12:06:01.197Z,33.04
2022-08-26T12:08:09.703Z,33.17
2022-08-26T12:10:30.007Z,33.05
2022-08-26T12:12:36.162Z,33.59
2022-08-26T12:14:38.197Z,33.67
2022-08-26T12:16:45.427Z,33.63
2022-08-26T12:18:50.170Z,32.89
2022-08-26T12:20:56.240Z,32.95
2022-08-26T12:23:00.160Z,33.28
2022-08-26T12:25:06.616Z,33.90
2022-08-26T12:27:17.932Z,34.31
2022-08-26T12:29:28.174Z,34.92
2022-08-26T12:31:35.592Z,35.38
2022-08-26T12:33:43.026Z,35.47
2022-08-26T12:35:49.387Z,35.51
2022-08-26T12:37:54.195Z,35.26
2022-08-26T12:40:52.818Z,35.86
2022-08-26T12:42:54.957Z,35.33
2022-08-26T12:45:05.532Z,35.62
2022-08-26T12:47:43.121Z,35.61
2022-08-26T12:49:45.681Z,35.62
2022-08-26T12:51:52.853Z,35.54
2022-08-26T12:54:02.513Z,35.18
2022-08-26T12:56:33.784Z,34.98
2022-08-26T12:58:40.296Z,35.88
2022-08-26T13:00:46.099Z,35.72
2022-08-26T13:02:49.836Z,35.54
2022-08-26T13:05:00.671Z,35.71
2022-08-26T13:07:22.587Z,35.25
2022-08-26T13:09:30.435Z,35.37
2022-08-26T13:11:34.682Z,35.43
2022-08-26T13:13:37.152Z,35.18
2022-08-26T13:15:44.369Z,35.24
2022-08-26T13:17:46.091Z,34.70
2022-08-26T13:19:47.753Z,34.70
2022-08-26T13:21:55.426Z,34.30
2022-08-26T13:24:01.366Z,34.57
2022-08-26T13:26:03.433Z,34.72
2022-08-26T13:28:05.373Z,34.66
2022-08-26T13:30:07.881Z,34.68
2022-08-26T13:32:12.403Z,34.59
2022-08-26T13:34:20.966Z,34.50
2022-08-26T13:36:23.140Z,35.39
2022-08-26T13:38:33.787Z,34.88
2022-08-26T13:40:35.952Z,34.92
2022-08-26T13:42:37.652Z,35.52
2022-08-26T13:44:53.225Z,34.86
2022-08-26T13:46:55.182Z,34.66
2022-08-26T13:48:57.469Z,34.65
2022-08-26T13:50:59.864Z,34.77
2022-08-26T13:53:01.872Z,34.11
2022-08-26T13:55:07.917Z,34.91
2022-08-26T13:57:10.973Z,34.56
2022-08-26T13:59:14.298Z,34.08
2022-08-26T14:01:16.958Z,34.32
2022-08-26T14:03:18.981Z,33.96
2022-08-26T14:05:23.197Z,34.39
2022-08-26T14:07:25.009Z,34.02
2022-08-26T14:09:27.597Z,33.81
2022-08-26T14:11:30.214Z,33.53
2022-08-26T14:13:50.994Z,33.71
2022-08-26T14:15:53.164Z,33.99
2022-08-26T14:17:55.747Z,33.13
2022-08-26T14:19:57.661Z,33.67
2022-08-26T14:22:02.584Z,33.55
2022-08-26T14:24:08.338Z,33.56
2022-08-26T14:26:28.956Z,33.61
2022-08-26T14:28:31.240Z,33.71
2022-08-26T14:30:32.966Z,33.58
2022-08-26T14:32:35.579Z,33.77
2022-08-26T14:34:39.976Z,33.83
2022-08-26T14:36:41.659Z,34.01
2022-08-26T14:38:43.393Z,33.82
2022-08-26T14:40:45.448Z,34.17
2022-08-26T14:42:53.906Z,33.80
2022-08-26T14:44:58.628Z,33.55
2022-08-26T14:47:02.706Z,33.23
2022-08-26T14:49:07.274Z,33.20
2022-08-26T14:51:12.176Z,33.04
2022-08-26T14:53:33.310Z,33.10
2022-08-26T14:55:39.035Z,33.34
2022-08-26T14:57:40.632Z,33.54
2022-08-26T14:59:49.733Z,33.43
2022-08-26T15:01:52.504Z,33.57
2022-08-26T15:03:54.172Z,33.58
2022-08-26T15:05:55.811Z,33.77
2022-08-26T15:07:57.513Z,34.25
2022-08-26T15:09:59.173Z,34.49
2022-08-26T15:12:02.544Z,35.78
2022-08-26T15:14:04.663Z,36.16
2022-08-26T15:16:08.988Z,37.28
2022-08-26T15:18:10.745Z,37.64
2022-08-26T15:20:12.511Z,37.97
2022-08-26T15:22:14.197Z,38.33
2022-08-26T15:24:18.877Z,38.57
2022-08-26T15:26:21.298Z,38.98
2022-08-26T15:28:23.226Z,39.38
2022-08-26T15:30:26.895Z,39.58
2022-08-26T15:32:30.895Z,39.76
2022-08-26T15:34:32.498Z,40.47
2022-08-26T15:36:35.381Z,40.62
2022-08-26T15:38:40.241Z,40.99
2022-08-26T15:40:43.444Z,40.93
2022-08-26T15:42:45.161Z,41.41
2022-08-26T15:45:02.004Z,41.57
2022-08-26T15:47:03.986Z,41.58
2022-08-26T15:49:06.979Z,41.95
2022-08-26T15:51:20.903Z,42.63
2022-08-26T15:53:24.486Z,42.27
2022-08-26T15:55:26.032Z,42.74
2022-08-26T15:57:27.577Z,42.87
2022-08-26T15:59:32.555Z,42.87
2022-08-26T16:01:35.729Z,43.28
2022-08-26T16:03:37.420Z,43.22
2022-08-26T16:05:40.799Z,43.72
2022-08-26T16:07:42.478Z,43.72
2022-08-26T16:09:43.992Z,44.02
2022-08-26T16:11:45.754Z,44.11
2022-08-26T16:13:47.781Z,43.97
2022-08-26T16:15:49.396Z,44.39
2022-08-26T16:17:50.890Z,44.66
2022-08-26T16:19:52.400Z,44.69
2022-08-26T16:21:54.393Z,44.71
2022-08-26T16:23:59.359Z,45.13
2022-08-26T16:26:08.512Z,45.22
2022-08-26T16:28:13.498Z,45.15
2022-08-26T16:30:15.674Z,45.26
2022-08-26T16:32:17.355Z,45.38
2022-08-26T16:34:21.064Z,45.41
2022-08-26T16:36:22.660Z,45.44
2022-08-26T16:38:24.886Z,45.75
2022-08-26T16:40:27.966Z,46.14
2022-08-26T16:42:29.715Z,46.23
2022-08-26T16:44:44.162Z,46.09
2022-08-26T16:46:45.931Z,46.38
2022-08-26T16:48:48.839Z,46.53
2022-08-26T16:50:55.774Z,46.74
2022-08-26T16:52:57.639Z,46.95
2022-08-26T16:55:01.318Z,47.05
2022-08-26T16:57:03.041Z,46.78
2022-08-26T16:59:07.030Z,47.08
2022-08-26T17:01:09.211Z,47.19
2022-08-26T17:03:11.882Z,47.02
2022-08-26T17:05:13.887Z,47.22
2022-08-26T17:07:15.547Z,47.21
2022-08-26T17:09:17.422Z,47.02
2022-08-26T17:11:19.629Z,47.04
2022-08-26T17:13:35.380Z,47.51
2022-08-26T17:15:44.625Z,47.87
2022-08-26T17:17:49.285Z,47.81
2022-08-26T17:19:50.818Z,47.88
2022-08-26T17:21:52.343Z,47.81
2022-08-26T17:23:56.540Z,47.93
2022-08-26T17:25:58.102Z,48.17
2022-08-26T17:27:59.726Z,47.84
2022-08-26T17:30:03.691Z,48.32
2022-08-26T17:32:08.545Z,48.51
2022-08-26T17:34:10.040Z,48.63
2022-08-26T17:36:11.783Z,48.19
2022-08-26T17:38:13.428Z,49.20
2022-08-26T17:40:18.618Z,49.16
2022-08-26T17:42:20.227Z,49.73
2022-08-26T17:44:22.073Z,49.34
2022-08-26T17:46:24.514Z,49.65
2022-08-26T17:48:26.476Z,49.28
2022-08-26T17:50:30.567Z,49.05
2022-08-26T17:52:32.522Z,49.04
2022-08-26T17:54:34.226Z,50.71
2022-08-26T17:56:36.134Z,50.82
2022-08-26T17:58:51.031Z,50.27
2022-08-26T18:00:54.641Z,49.95
2022-08-26T18:02:56.801Z,49.79
2022-08-26T18:04:58.814Z,50.38
2022-08-26T18:07:03.234Z,50.26
2022-08-26T18:09:05.369Z,50.27
2022-08-26T18:11:11.417Z,49.93
2022-08-26T18:13:16.657Z,49.85
2022-08-26T18:15:18.864Z,49.96
2022-08-26T18:17:22.990Z,50.09
2022-08-26T18:19:24.587Z,50.06
2022-08-26T18:21:27.464Z,49.71
2022-08-26T18:23:31.470Z,50.12
2022-08-26T18:25:33.629Z,49.96
2022-08-26T18:27:36.714Z,49.88
2022-08-26T18:29:45.550Z,50.12
2022-08-26T18:31:48.476Z,49.96
2022-08-26T18:33:50.577Z,50.17
2022-08-26T18:35:54.891Z,50.36
2022-08-26T18:37:58.011Z,50.18
2022-08-26T18:40:12.165Z,50.58
2022-08-26T18:42:14.245Z,50.61
2022-08-26T18:44:21.238Z,50.53
2022-08-26T18:46:27.450Z,50.54
2022-08-26T18:48:31.558Z,50.78
2022-08-26T18:50:33.484Z,50.61
2022-08-26T18:52:35.140Z,50.85
2022-08-26T18:54:36.852Z,50.84
2022-08-26T18:56:40.075Z,50.86
2022-08-26T18:58:44.874Z,51.00
2022-08-26T19:00:46.635Z,51.06
2022-08-26T19:02:51.904Z,50.88
2022-08-26T19:04:57.379Z,50.97
2022-08-26T19:06:59.687Z,51.02
2022-08-26T19:09:06.914Z,50.93
2022-08-26T19:11:10.968Z,51.01
2022-08-26T19:13:15.825Z,51.16
2022-08-26T19:15:21.708Z,50.73
2022-08-26T19:17:23.525Z,51.03
2022-08-26T19:19:25.205Z,51.21
2022-08-26T19:21:28.032Z,51.14
2022-08-26T19:23:31.853Z,51.05
2022-08-26T19:25:34.113Z,51.03
2022-08-26T19:27:35.791Z,51.28
2022-08-26T19:29:40.328Z,51.12
2022-08-26T19:31:42.410Z,50.79
2022-08-26T19:33:45.842Z,50.86
2022-08-26T19:35:47.846Z,51.12
2022-08-26T19:37:49.526Z,51.01
2022-08-26T19:39:51.330Z,51.50
2022-08-26T19:41:53.518Z,51.41
2022-08-26T19:43:56.092Z,51.46
2022-08-26T19:46:00.732Z,50.98
2022-08-26T19:48:06.072Z,51.28
2022-08-26T19:50:11.562Z,51.51
2022-08-26T19:52:16.513Z,51.44
2022-08-26T19:54:18.244Z,51.51
2022-08-26T19:56:21.484Z,52.03
2022-08-26T19:58:23.219Z,51.93
2022-08-26T20:00:27.341Z,52.17
2022-08-26T20:02:29.198Z,52.24
2022-08-26T20:04:31.799Z,52.11
2022-08-26T20:06:34.430Z,52.28
2022-08-26T20:08:41.731Z,52.29
2022-08-26T20:10:44.413Z,52.27
2022-08-26T20:12:47.349Z,52.29
2022-08-26T20:14:48.944Z,52.41
2022-08-26T20:16:50.725Z,52.02
2022-08-26T20:19:11.380Z,52.32
2022-08-26T20:21:29.538Z,52.41
2022-08-26T20:23:31.425Z,52.17
2022-08-26T20:25:34.247Z,52.48
2022-08-26T20:27:38.406Z,52.25
2022-08-26T20:29:41.976Z,52.46
2022-08-26T20:31:44.644Z,52.31
2022-08-26T20:33:46.839Z,52.19
2022-08-26T20:35:48.566Z,52.51
2022-08-26T20:37:50.248Z,52.45
2022-08-26T20:39:54.374Z,52.74
2022-08-26T20:41:57.302Z,52.29
2022-08-26T20:43:59.312Z,52.67
2022-08-26T20:46:01.017Z,52.53
2022-08-26T20:48:02.993Z,52.36
2022-08-26T20:50:05.175Z,52.72
2022-08-26T20:52:06.788Z,52.64
2022-08-26T20:54:08.535Z,52.90
2022-08-26T20:56:15.391Z,52.68
2022-08-26T20:58:17.135Z,52.64
2022-08-26T21:00:22.942Z,52.78
2022-08-26T21:02:28.293Z,53.07
2022-08-26T21:04:29.948Z,52.73
2022-08-26T21:06:35.210Z,52.79
2022-08-26T21:08:38.726Z,53.06
2022-08-26T21:10:45.472Z,52.65
2022-08-26T21:12:47.570Z,52.92
2022-08-26T21:14:49.858Z,53.01
2022-08-26T21:16:51.868Z,52.79
2022-08-26T21:18:53.571Z,52.98
2022-08-26T21:20:55.429Z,53.03
2022-08-26T21:22:57.248Z,53.28
2022-08-26T21:25:02.075Z,53.08
2022-08-26T21:27:05.269Z,53.19
2022-08-26T21:29:09.517Z,52.97
2022-08-26T21:31:16.664Z,53.26
2022-08-26T21:33:18.416Z,52.84
2022-08-26T21:35:20.177Z,53.12
2022-08-26T21:37:22.121Z,53.04
2022-08-26T21:39:29.916Z,53.09
2022-08-26T21:41:31.693Z,52.78
2022-08-26T21:43:38.381Z,52.96
2022-08-26T21:45:41.442Z,53.08
2022-08-26T21:47:43.841Z,52.97
2022-08-26T21:49:45.863Z,52.93
2022-08-26T21:51:48.620Z,53.41
2022-08-26T21:53:52.921Z,52.89
2022-08-26T21:55:55.011Z,52.88
2022-08-26T21:57:56.698Z,53.13
2022-08-26T21:59:59.559Z,52.95
2022-08-26T22:02:01.696Z,53.03
2022-08-26T22:04:06.786Z,53.20
2022-08-26T22:06:08.502Z,53.20
2022-08-26T22:08:10.434Z,53.34
2022-08-26T22:10:12.532Z,52.84
2022-08-26T22:12:14.448Z,53.35
2022-08-26T22:14:18.301Z,53.32
2022-08-26T22:16:20.031Z,53.15
2022-08-26T22:18:21.550Z,52.93
2022-08-26T22:20:23.966Z,52.86
2022-08-26T22:22:26.220Z,53.05
2022-08-26T22:24:27.856Z,53.49
2022-08-26T22:26:32.133Z,53.37
2022-08-26T22:28:34.453Z,53.29
2022-08-26T22:30:35.897Z,53.46
2022-08-26T22:32:39.636Z,53.29
2022-08-26T22:34:41.908Z,53.26
2022-08-26T22:36:48.464Z,53.17
2022-08-26T22:38:50.901Z,53.42
2022-08-26T22:41:03.421Z,53.39
2022-08-26T22:43:12.109Z,53.67
2022-08-26T22:45:13.758Z,53.01
2022-08-26T22:47:15.379Z,53.22
2022-08-26T22:49:17.703Z,53.33
2022-08-26T22:51:19.853Z,53.43
2022-08-26T22:53:21.608Z,53.47
2022-08-26T22:55:23.286Z,53.44
2022-08-26T22:57:24.904Z,53.37
2022-08-26T22:59:26.556Z,53.41
2022-08-26T23:01:28.531Z,53.65
2022-08-26T23:03:30.291Z,53.32
2022-08-26T23:05:31.985Z,53.51
2022-08-26T23:07:34.756Z,53.64
2022-08-26T23:09:36.922Z,53.53
2022-08-26T23:11:42.653Z,53.35
2022-08-26T23:13:44.176Z,53.73
2022-08-26T23:15:46.012Z,53.56
2022-08-26T23:17:53.583Z,53.44
2022-08-26T23:20:01.578Z,53.71
2022-08-26T23:22:03.693Z,53.69
2022-08-26T23:24:07.133Z,53.71
2022-08-26T23:26:09.085Z,53.70
2022-08-26T23:28:13.450Z,53.97
2022-08-26T23:30:19.037Z,53.57
2022-08-26T23:32:26.396Z,53.52
2022-08-26T23:34:46.888Z,53.46
2022-08-26T23:36:49.864Z,53.77
2022-08-26T23:38:53.481Z,53.56
2022-08-26T23:40:58.189Z,53.97
2022-08-26T23:43:03.432Z,53.77
2022-08-26T23:45:10.678Z,54.08
2022-08-26T23:47:12.543Z,54.02
2022-08-26T23:49:13.948Z,53.83
2022-08-26T23:51:34.324Z,54.07
2022-08-26T23:53:35.926Z,53.77
2022-08-26T23:55:39.181Z,53.77
2022-08-26T23:57:44.142Z,53.60
2022-08-26T23:59:46.058Z,53.77
